sensor_id;sensor_type;location;lat;lon;timestamp;P1;durP1;ratioP1;P2;durP2;ratioP2
2486;SDS011;1254;49.144;8.212;2023-07-24T00:02:23;4.80;;;4.40;;
2486;SDS011;1254;49.144;8.212;2023-07-24T00:04:51;4.63;;;4.33;;
2486;SDS011;1254;49.144;8.212;2023-07-24T00:07:21;4.53;;;4.13;;
2486;SDS011;1254;49.144;8.212;2023-07-24T00:09:49;5.00;;;4.60;;
2486;SDS011;1254;49.144;8.212;2023-07-24T00:12:18;4.47;;;4.17;;
2486;SDS011;1254;49.144;8.212;2023-07-24T00:14:46;5.90;;;5.30;;
2486;SDS011;1254;49.144;8.212;2023-07-24T00:17:14;6.40;;;5.80;;
2486;SDS011;1254;49.144;8.212;2023-07-24T00:19:43;5.40;;;4.90;;
2486;SDS011;1254;49.144;8.212;2023-07-24T00:22:11;6.03;;;5.27;;
2486;SDS011;1254;49.144;8.212;2023-07-24T00:24:40;6.23;;;5.60;;
2486;SDS011;1254;49.144;8.212;2023-07-24T00:27:08;5.60;;;5.03;;
2486;SDS011;1254;49.144;8.212;2023-07-24T00:29:36;5.73;;;5.17;;
2486;SDS011;1254;49.144;8.212;2023-07-24T00:32:05;5.43;;;4.93;;
2486;SDS011;1254;49.144;8.212;2023-07-24T00:34:35;5.80;;;5.30;;
2486;SDS011;1254;49.144;8.212;2023-07-24T00:37:04;6.10;;;5.07;;
2486;SDS011;1254;49.144;8.212;2023-07-24T00:39:32;6.30;;;5.70;;
2486;SDS011;1254;49.144;8.212;2023-07-24T00:42:02;6.20;;;5.37;;
2486;SDS011;1254;49.144;8.212;2023-07-24T00:44:30;9.13;;;5.90;;
2486;SDS011;1254;49.144;8.212;2023-07-24T00:46:58;6.20;;;5.70;;
2486;SDS011;1254;49.144;8.212;2023-07-24T00:49:26;6.43;;;5.77;;
2486;SDS011;1254;49.144;8.212;2023-07-24T00:51:55;6.50;;;5.43;;
2486;SDS011;1254;49.144;8.212;2023-07-24T00:54:25;7.60;;;6.20;;
2486;SDS011;1254;49.144;8.212;2023-07-24T00:56:56;9.53;;;6.17;;
2486;SDS011;1254;49.144;8.212;2023-07-24T00:59:26;9.93;;;7.10;;
2486;SDS011;1254;49.144;8.212;2023-07-24T01:01:54;10.37;;;6.60;;
2486;SDS011;1254;49.144;8.212;2023-07-24T01:04:22;7.27;;;5.70;;
2486;SDS011;1254;49.144;8.212;2023-07-24T01:06:51;6.10;;;5.60;;
2486;SDS011;1254;49.144;8.212;2023-07-24T01:09:19;5.60;;;5.10;;
2486;SDS011;1254;49.144;8.212;2023-07-24T01:11:50;7.60;;;6.23;;
2486;SDS011;1254;49.144;8.212;2023-07-24T01:14:19;5.83;;;5.23;;
2486;SDS011;1254;49.144;8.212;2023-07-24T01:16:50;7.47;;;6.70;;
2486;SDS011;1254;49.144;8.212;2023-07-24T01:19:20;6.10;;;5.60;;
2486;SDS011;1254;49.144;8.212;2023-07-24T01:21:53;5.40;;;4.90;;
2486;SDS011;1254;49.144;8.212;2023-07-24T01:24:29;8.93;;;5.27;;
2486;SDS011;1254;49.144;8.212;2023-07-24T01:26:59;6.30;;;5.10;;
2486;SDS011;1254;49.144;8.212;2023-07-24T01:29:27;5.77;;;5.17;;
2486;SDS011;1254;49.144;8.212;2023-07-24T01:31:55;9.63;;;5.37;;
2486;SDS011;1254;49.144;8.212;2023-07-24T01:34:26;8.40;;;5.40;;
2486;SDS011;1254;49.144;8.212;2023-07-24T01:36:54;5.70;;;5.10;;
2486;SDS011;1254;49.144;8.212;2023-07-24T01:39:23;8.53;;;5.73;;
2486;SDS011;1254;49.144;8.212;2023-07-24T01:41:51;5.60;;;5.10;;
2486;SDS011;1254;49.144;8.212;2023-07-24T01:44:21;6.23;;;5.13;;
2486;SDS011;1254;49.144;8.212;2023-07-24T01:46:49;6.30;;;5.50;;
2486;SDS011;1254;49.144;8.212;2023-07-24T01:49:17;6.23;;;4.93;;
2486;SDS011;1254;49.144;8.212;2023-07-24T01:51:46;6.67;;;4.93;;
2486;SDS011;1254;49.144;8.212;2023-07-24T01:54:16;10.23;;;6.27;;
2486;SDS011;1254;49.144;8.212;2023-07-24T01:56:44;5.63;;;4.93;;
2486;SDS011;1254;49.144;8.212;2023-07-24T01:59:12;7.77;;;5.20;;
2486;SDS011;1254;49.144;8.212;2023-07-24T02:01:42;5.63;;;4.73;;
2486;SDS011;1254;49.144;8.212;2023-07-24T02:04:10;6.20;;;5.60;;
2486;SDS011;1254;49.144;8.212;2023-07-24T02:06:40;10.90;;;5.30;;
2486;SDS011;1254;49.144;8.212;2023-07-24T02:09:09;5.30;;;4.80;;
2486;SDS011;1254;49.144;8.212;2023-07-24T02:11:37;6.63;;;5.70;;
2486;SDS011;1254;49.144;8.212;2023-07-24T02:14:06;9.03;;;5.83;;
2486;SDS011;1254;49.144;8.212;2023-07-24T02:16:34;4.73;;;4.33;;
2486;SDS011;1254;49.144;8.212;2023-07-24T02:19:04;6.40;;;5.80;;
2486;SDS011;1254;49.144;8.212;2023-07-24T02:21:33;7.57;;;6.00;;
2486;SDS011;1254;49.144;8.212;2023-07-24T02:24:01;6.40;;;5.80;;
2486;SDS011;1254;49.144;8.212;2023-07-24T02:26:31;7.50;;;4.90;;
2486;SDS011;1254;49.144;8.212;2023-07-24T02:29:01;6.60;;;5.87;;
2486;SDS011;1254;49.144;8.212;2023-07-24T02:31:29;5.50;;;5.00;;
2486;SDS011;1254;49.144;8.212;2023-07-24T02:33:57;12.30;;;5.33;;
2486;SDS011;1254;49.144;8.212;2023-07-24T02:36:27;4.93;;;4.43;;
2486;SDS011;1254;49.144;8.212;2023-07-24T02:38:55;7.13;;;6.30;;
2486;SDS011;1254;49.144;8.212;2023-07-24T02:41:23;7.13;;;5.90;;
2486;SDS011;1254;49.144;8.212;2023-07-24T02:43:51;13.13;;;11.97;;
2486;SDS011;1254;49.144;8.212;2023-07-24T02:46:19;20.90;;;17.13;;
2486;SDS011;1254;49.144;8.212;2023-07-24T02:48:51;15.90;;;14.37;;
2486;SDS011;1254;49.144;8.212;2023-07-24T02:51:19;17.13;;;14.90;;
2486;SDS011;1254;49.144;8.212;2023-07-24T02:53:49;14.37;;;13.07;;
2486;SDS011;1254;49.144;8.212;2023-07-24T02:56:17;14.57;;;11.37;;
2486;SDS011;1254;49.144;8.212;2023-07-24T02:58:46;11.57;;;10.47;;
2486;SDS011;1254;49.144;8.212;2023-07-24T03:01:15;13.93;;;8.40;;
2486;SDS011;1254;49.144;8.212;2023-07-24T03:03:43;11.20;;;9.27;;
2486;SDS011;1254;49.144;8.212;2023-07-24T03:06:11;8.90;;;7.40;;
2486;SDS011;1254;49.144;8.212;2023-07-24T03:08:39;8.93;;;7.87;;
2486;SDS011;1254;49.144;8.212;2023-07-24T03:11:09;9.60;;;7.73;;
2486;SDS011;1254;49.144;8.212;2023-07-24T03:13:37;7.90;;;7.10;;
2486;SDS011;1254;49.144;8.212;2023-07-24T03:16:07;9.47;;;7.27;;
2486;SDS011;1254;49.144;8.212;2023-07-24T03:18:35;7.60;;;6.23;;
2486;SDS011;1254;49.144;8.212;2023-07-24T03:21:03;11.53;;;6.60;;
2486;SDS011;1254;49.144;8.212;2023-07-24T03:23:32;6.93;;;6.27;;
2486;SDS011;1254;49.144;8.212;2023-07-24T03:26:00;8.10;;;5.70;;
2486;SDS011;1254;49.144;8.212;2023-07-24T03:28:29;7.37;;;5.93;;
2486;SDS011;1254;49.144;8.212;2023-07-24T03:30:57;10.63;;;6.73;;
2486;SDS011;1254;49.144;8.212;2023-07-24T03:33:25;7.13;;;6.10;;
2486;SDS011;1254;49.144;8.212;2023-07-24T03:35:53;9.67;;;6.73;;
2486;SDS011;1254;49.144;8.212;2023-07-24T03:38:21;6.20;;;5.30;;
2486;SDS011;1254;49.144;8.212;2023-07-24T03:40:52;7.70;;;6.07;;
2486;SDS011;1254;49.144;8.212;2023-07-24T03:43:20;6.13;;;5.30;;
2486;SDS011;1254;49.144;8.212;2023-07-24T03:45:49;8.17;;;5.33;;
2486;SDS011;1254;49.144;8.212;2023-07-24T03:48:17;7.20;;;5.87;;
2486;SDS011;1254;49.144;8.212;2023-07-24T03:50:45;7.67;;;5.20;;
2486;SDS011;1254;49.144;8.212;2023-07-24T03:53:13;5.87;;;5.30;;
2486;SDS011;1254;49.144;8.212;2023-07-24T03:55:41;6.40;;;5.43;;
2486;SDS011;1254;49.144;8.212;2023-07-24T03:58:10;7.03;;;6.00;;
2486;SDS011;1254;49.144;8.212;2023-07-24T04:00:38;8.47;;;5.90;;
2486;SDS011;1254;49.144;8.212;2023-07-24T04:03:07;7.50;;;6.20;;
2486;SDS011;1254;49.144;8.212;2023-07-24T04:05:35;7.70;;;6.73;;
2486;SDS011;1254;49.144;8.212;2023-07-24T04:08:03;8.47;;;6.53;;
2486;SDS011;1254;49.144;8.212;2023-07-24T04:10:32;7.83;;;6.73;;
2486;SDS011;1254;49.144;8.212;2023-07-24T04:12:59;8.07;;;5.90;;
2486;SDS011;1254;49.144;8.212;2023-07-24T04:15:27;15.23;;;7.17;;
2486;SDS011;1254;49.144;8.212;2023-07-24T04:17:55;10.47;;;7.43;;
2486;SDS011;1254;49.144;8.212;2023-07-24T04:20:25;12.40;;;7.70;;
2486;SDS011;1254;49.144;8.212;2023-07-24T04:22:53;9.03;;;7.03;;
2486;SDS011;1254;49.144;8.212;2023-07-24T04:25:21;7.47;;;5.60;;
2486;SDS011;1254;49.144;8.212;2023-07-24T04:27:49;8.40;;;6.93;;
2486;SDS011;1254;49.144;8.212;2023-07-24T04:30:17;10.47;;;7.57;;
2486;SDS011;1254;49.144;8.212;2023-07-24T04:32:45;9.23;;;6.57;;
2486;SDS011;1254;49.144;8.212;2023-07-24T04:35:13;7.40;;;6.43;;
2486;SDS011;1254;49.144;8.212;2023-07-24T04:37:43;10.40;;;6.80;;
2486;SDS011;1254;49.144;8.212;2023-07-24T04:40:11;8.27;;;5.57;;
2486;SDS011;1254;49.144;8.212;2023-07-24T04:42:40;9.83;;;7.00;;
2486;SDS011;1254;49.144;8.212;2023-07-24T04:45:08;7.67;;;6.93;;
2486;SDS011;1254;49.144;8.212;2023-07-24T04:47:36;8.07;;;6.10;;
2486;SDS011;1254;49.144;8.212;2023-07-24T04:50:05;7.70;;;6.87;;
2486;SDS011;1254;49.144;8.212;2023-07-24T04:52:33;9.43;;;6.77;;
2486;SDS011;1254;49.144;8.212;2023-07-24T04:55:03;11.03;;;6.73;;
2486;SDS011;1254;49.144;8.212;2023-07-24T04:57:31;12.73;;;6.13;;
2486;SDS011;1254;49.144;8.212;2023-07-24T05:00:00;9.83;;;7.80;;
2486;SDS011;1254;49.144;8.212;2023-07-24T05:02:28;7.13;;;5.90;;
2486;SDS011;1254;49.144;8.212;2023-07-24T05:04:56;8.93;;;7.23;;
2486;SDS011;1254;49.144;8.212;2023-07-24T05:07:24;12.30;;;6.40;;
2486;SDS011;1254;49.144;8.212;2023-07-24T05:09:53;8.67;;;7.37;;
2486;SDS011;1254;49.144;8.212;2023-07-24T05:12:22;7.73;;;7.03;;
2486;SDS011;1254;49.144;8.212;2023-07-24T05:14:50;8.23;;;6.90;;
2486;SDS011;1254;49.144;8.212;2023-07-24T05:17:19;7.60;;;6.50;;
2486;SDS011;1254;49.144;8.212;2023-07-24T05:19:47;8.40;;;7.50;;
2486;SDS011;1254;49.144;8.212;2023-07-24T05:22:15;12.27;;;6.73;;
2486;SDS011;1254;49.144;8.212;2023-07-24T05:24:43;7.27;;;6.57;;
2486;SDS011;1254;49.144;8.212;2023-07-24T05:27:11;7.57;;;6.80;;
2486;SDS011;1254;49.144;8.212;2023-07-24T05:29:43;7.50;;;6.80;;
2486;SDS011;1254;49.144;8.212;2023-07-24T05:32:11;7.37;;;5.93;;
2486;SDS011;1254;49.144;8.212;2023-07-24T05:34:39;6.70;;;6.10;;
2486;SDS011;1254;49.144;8.212;2023-07-24T05:37:07;12.00;;;6.67;;
2486;SDS011;1254;49.144;8.212;2023-07-24T05:39:35;8.37;;;7.03;;
2486;SDS011;1254;49.144;8.212;2023-07-24T05:42:04;9.10;;;7.80;;
2486;SDS011;1254;49.144;8.212;2023-07-24T05:44:32;12.00;;;7.70;;
2486;SDS011;1254;49.144;8.212;2023-07-24T05:47:04;9.90;;;7.90;;
2486;SDS011;1254;49.144;8.212;2023-07-24T05:49:32;8.90;;;6.73;;
2486;SDS011;1254;49.144;8.212;2023-07-24T05:52:01;10.83;;;7.73;;
2486;SDS011;1254;49.144;8.212;2023-07-24T05:54:29;10.33;;;8.40;;
2486;SDS011;1254;49.144;8.212;2023-07-24T05:56:57;9.33;;;7.47;;
2486;SDS011;1254;49.144;8.212;2023-07-24T05:59:26;9.37;;;7.90;;
2486;SDS011;1254;49.144;8.212;2023-07-24T06:01:54;8.63;;;7.10;;
2486;SDS011;1254;49.144;8.212;2023-07-24T06:04:23;9.37;;;8.47;;
2486;SDS011;1254;49.144;8.212;2023-07-24T06:06:51;9.93;;;7.53;;
2486;SDS011;1254;49.144;8.212;2023-07-24T06:09:20;8.53;;;7.73;;
2486;SDS011;1254;49.144;8.212;2023-07-24T06:11:48;9.90;;;8.30;;
2486;SDS011;1254;49.144;8.212;2023-07-24T06:14:16;12.50;;;8.77;;
2486;SDS011;1254;49.144;8.212;2023-07-24T06:16:44;12.40;;;7.90;;
2486;SDS011;1254;49.144;8.212;2023-07-24T06:19:12;11.57;;;8.40;;
2486;SDS011;1254;49.144;8.212;2023-07-24T06:21:42;11.87;;;10.60;;
2486;SDS011;1254;49.144;8.212;2023-07-24T06:24:10;10.63;;;7.93;;
2486;SDS011;1254;49.144;8.212;2023-07-24T06:26:39;9.60;;;7.97;;
2486;SDS011;1254;49.144;8.212;2023-07-24T06:29:07;18.93;;;8.20;;
2486;SDS011;1254;49.144;8.212;2023-07-24T06:31:35;10.83;;;7.63;;
2486;SDS011;1254;49.144;8.212;2023-07-24T06:34:04;9.00;;;7.33;;
2486;SDS011;1254;49.144;8.212;2023-07-24T06:36:32;12.40;;;8.17;;
2486;SDS011;1254;49.144;8.212;2023-07-24T06:39:01;10.80;;;8.10;;
2486;SDS011;1254;49.144;8.212;2023-07-24T06:41:30;9.63;;;7.97;;
2486;SDS011;1254;49.144;8.212;2023-07-24T06:43:58;10.27;;;8.87;;
2486;SDS011;1254;49.144;8.212;2023-07-24T06:46:26;10.30;;;7.83;;
2486;SDS011;1254;49.144;8.212;2023-07-24T06:48:55;10.07;;;7.27;;
2486;SDS011;1254;49.144;8.212;2023-07-24T06:51:23;10.93;;;8.50;;
2486;SDS011;1254;49.144;8.212;2023-07-24T06:53:51;8.70;;;7.77;;
2486;SDS011;1254;49.144;8.212;2023-07-24T06:56:21;9.77;;;8.50;;
2486;SDS011;1254;49.144;8.212;2023-07-24T06:58:49;8.53;;;7.73;;
2486;SDS011;1254;49.144;8.212;2023-07-24T07:01:17;8.63;;;7.20;;
2486;SDS011;1254;49.144;8.212;2023-07-24T07:03:46;9.20;;;8.30;;
2486;SDS011;1254;49.144;8.212;2023-07-24T07:06:14;8.33;;;7.53;;
2486;SDS011;1254;49.144;8.212;2023-07-24T07:08:42;9.40;;;8.20;;
2486;SDS011;1254;49.144;8.212;2023-07-24T07:11:10;11.07;;;8.00;;
2486;SDS011;1254;49.144;8.212;2023-07-24T07:13:40;16.43;;;8.50;;
2486;SDS011;1254;49.144;8.212;2023-07-24T07:16:08;11.10;;;7.73;;
2486;SDS011;1254;49.144;8.212;2023-07-24T07:18:36;12.23;;;8.23;;
2486;SDS011;1254;49.144;8.212;2023-07-24T07:21:04;10.97;;;8.00;;
2486;SDS011;1254;49.144;8.212;2023-07-24T07:23:32;9.13;;;8.10;;
2486;SDS011;1254;49.144;8.212;2023-07-24T07:26:00;9.33;;;7.33;;
2486;SDS011;1254;49.144;8.212;2023-07-24T07:28:29;12.10;;;8.10;;
2486;SDS011;1254;49.144;8.212;2023-07-24T07:30:58;10.43;;;8.40;;
2486;SDS011;1254;49.144;8.212;2023-07-24T07:33:26;8.83;;;7.83;;
2486;SDS011;1254;49.144;8.212;2023-07-24T07:35:55;8.67;;;7.43;;
2486;SDS011;1254;49.144;8.212;2023-07-24T07:38:23;9.20;;;8.10;;
2486;SDS011;1254;49.144;8.212;2023-07-24T07:41:05;10.90;;;8.50;;
2486;SDS011;1254;49.144;8.212;2023-07-24T07:43:34;8.77;;;7.53;;
2486;SDS011;1254;49.144;8.212;2023-07-24T07:46:03;8.53;;;7.63;;
2486;SDS011;1254;49.144;8.212;2023-07-24T07:48:31;10.70;;;7.90;;
2486;SDS011;1254;49.144;8.212;2023-07-24T07:51:00;8.97;;;7.93;;
2486;SDS011;1254;49.144;8.212;2023-07-24T07:53:28;8.83;;;7.93;;
2486;SDS011;1254;49.144;8.212;2023-07-24T07:55:58;11.30;;;7.23;;
2486;SDS011;1254;49.144;8.212;2023-07-24T07:58:26;8.63;;;7.20;;
2486;SDS011;1254;49.144;8.212;2023-07-24T08:00:55;11.63;;;7.13;;
2486;SDS011;1254;49.144;8.212;2023-07-24T08:03:24;8.13;;;6.90;;
2486;SDS011;1254;49.144;8.212;2023-07-24T08:05:56;8.30;;;7.50;;
2486;SDS011;1254;49.144;8.212;2023-07-24T08:08:24;7.67;;;6.97;;
2486;SDS011;1254;49.144;8.212;2023-07-24T08:10:52;9.00;;;6.83;;
2486;SDS011;1254;49.144;8.212;2023-07-24T08:13:21;8.50;;;7.60;;
2486;SDS011;1254;49.144;8.212;2023-07-24T08:15:49;8.73;;;6.93;;
2486;SDS011;1254;49.144;8.212;2023-07-24T08:18:17;8.23;;;7.27;;
2486;SDS011;1254;49.144;8.212;2023-07-24T08:20:47;8.00;;;7.20;;
2486;SDS011;1254;49.144;8.212;2023-07-24T08:23:15;7.90;;;7.20;;
2486;SDS011;1254;49.144;8.212;2023-07-24T08:25:50;9.67;;;8.10;;
2486;SDS011;1254;49.144;8.212;2023-07-24T08:28:18;9.13;;;7.77;;
2486;SDS011;1254;49.144;8.212;2023-07-24T08:30:55;9.60;;;7.47;;
2486;SDS011;1254;49.144;8.212;2023-07-24T08:33:24;9.13;;;8.20;;
2486;SDS011;1254;49.144;8.212;2023-07-24T08:36:03;10.60;;;8.17;;
2486;SDS011;1254;49.144;8.212;2023-07-24T08:38:32;7.63;;;7.00;;
2486;SDS011;1254;49.144;8.212;2023-07-24T08:41:01;8.73;;;6.90;;
2486;SDS011;1254;49.144;8.212;2023-07-24T08:43:29;6.73;;;6.03;;
2486;SDS011;1254;49.144;8.212;2023-07-24T08:45:58;7.73;;;6.80;;
2486;SDS011;1254;49.144;8.212;2023-07-24T08:48:28;6.93;;;6.23;;
2486;SDS011;1254;49.144;8.212;2023-07-24T08:50:57;8.90;;;7.60;;
2486;SDS011;1254;49.144;8.212;2023-07-24T08:53:28;9.50;;;6.47;;
2486;SDS011;1254;49.144;8.212;2023-07-24T08:55:57;8.00;;;7.20;;
2486;SDS011;1254;49.144;8.212;2023-07-24T08:58:27;9.73;;;7.80;;
2486;SDS011;1254;49.144;8.212;2023-07-24T09:00:56;9.23;;;8.07;;
2486;SDS011;1254;49.144;8.212;2023-07-24T09:03:24;12.63;;;7.50;;
2486;SDS011;1254;49.144;8.212;2023-07-24T09:05:52;11.20;;;6.80;;
2486;SDS011;1254;49.144;8.212;2023-07-24T09:08:32;7.77;;;7.07;;
2486;SDS011;1254;49.144;8.212;2023-07-24T09:11:00;7.53;;;6.77;;
2486;SDS011;1254;49.144;8.212;2023-07-24T09:13:29;7.07;;;6.47;;
2486;SDS011;1254;49.144;8.212;2023-07-24T09:15:57;8.17;;;6.87;;
2486;SDS011;1254;49.144;8.212;2023-07-24T09:18:26;9.40;;;6.57;;
2486;SDS011;1254;49.144;8.212;2023-07-24T09:20:54;7.20;;;6.40;;
2486;SDS011;1254;49.144;8.212;2023-07-24T09:23:26;6.80;;;6.13;;
2486;SDS011;1254;49.144;8.212;2023-07-24T09:25:56;8.83;;;6.43;;
2486;SDS011;1254;49.144;8.212;2023-07-24T09:28:24;7.20;;;6.00;;
2486;SDS011;1254;49.144;8.212;2023-07-24T09:30:52;7.33;;;6.50;;
2486;SDS011;1254;49.144;8.212;2023-07-24T09:33:21;6.43;;;5.90;;
2486;SDS011;1254;49.144;8.212;2023-07-24T09:35:56;7.73;;;7.07;;
2486;SDS011;1254;49.144;8.212;2023-07-24T09:38:25;11.20;;;7.87;;
2486;SDS011;1254;49.144;8.212;2023-07-24T09:40:53;11.30;;;6.47;;
2486;SDS011;1254;49.144;8.212;2023-07-24T09:43:24;8.70;;;7.80;;
2486;SDS011;1254;49.144;8.212;2023-07-24T09:45:53;7.57;;;6.87;;
2486;SDS011;1254;49.144;8.212;2023-07-24T09:48:34;7.83;;;7.10;;
2486;SDS011;1254;49.144;8.212;2023-07-24T09:51:03;9.00;;;7.10;;
2486;SDS011;1254;49.144;8.212;2023-07-24T09:53:31;8.97;;;7.30;;
2486;SDS011;1254;49.144;8.212;2023-07-24T09:56:01;7.77;;;6.93;;
2486;SDS011;1254;49.144;8.212;2023-07-24T09:58:32;7.60;;;6.77;;
2486;SDS011;1254;49.144;8.212;2023-07-24T10:01:02;9.90;;;7.23;;
2486;SDS011;1254;49.144;8.212;2023-07-24T10:03:32;11.03;;;7.00;;
2486;SDS011;1254;49.144;8.212;2023-07-24T10:06:01;10.00;;;7.10;;
2486;SDS011;1254;49.144;8.212;2023-07-24T10:08:29;7.23;;;6.53;;
2486;SDS011;1254;49.144;8.212;2023-07-24T10:10:58;9.40;;;6.50;;
2486;SDS011;1254;49.144;8.212;2023-07-24T10:13:27;9.10;;;6.67;;
2486;SDS011;1254;49.144;8.212;2023-07-24T10:15:57;8.67;;;6.90;;
2486;SDS011;1254;49.144;8.212;2023-07-24T10:18:26;11.53;;;7.67;;
2486;SDS011;1254;49.144;8.212;2023-07-24T10:21:02;8.53;;;7.73;;
2486;SDS011;1254;49.144;8.212;2023-07-24T10:23:30;11.50;;;6.53;;
2486;SDS011;1254;49.144;8.212;2023-07-24T10:26:02;7.73;;;6.90;;
2486;SDS011;1254;49.144;8.212;2023-07-24T10:28:30;7.50;;;6.80;;
2486;SDS011;1254;49.144;8.212;2023-07-24T10:31:00;11.87;;;7.10;;
2486;SDS011;1254;49.144;8.212;2023-07-24T10:33:30;8.87;;;7.33;;
2486;SDS011;1254;49.144;8.212;2023-07-24T10:36:05;8.60;;;7.10;;
2486;SDS011;1254;49.144;8.212;2023-07-24T10:38:36;8.50;;;7.40;;
2486;SDS011;1254;49.144;8.212;2023-07-24T10:41:05;8.33;;;7.43;;
2486;SDS011;1254;49.144;8.212;2023-07-24T10:43:40;9.43;;;7.77;;
2486;SDS011;1254;49.144;8.212;2023-07-24T10:46:10;9.03;;;7.57;;
2486;SDS011;1254;49.144;8.212;2023-07-24T10:48:41;8.30;;;6.90;;
2486;SDS011;1254;49.144;8.212;2023-07-24T10:51:10;12.93;;;7.87;;
2486;SDS011;1254;49.144;8.212;2023-07-24T10:53:41;7.50;;;6.53;;
2486;SDS011;1254;49.144;8.212;2023-07-24T10:56:09;7.57;;;6.30;;
2486;SDS011;1254;49.144;8.212;2023-07-24T10:58:37;6.50;;;5.90;;
2486;SDS011;1254;49.144;8.212;2023-07-24T11:01:06;6.97;;;6.13;;
2486;SDS011;1254;49.144;8.212;2023-07-24T11:03:36;9.60;;;6.60;;
2486;SDS011;1254;49.144;8.212;2023-07-24T11:06:05;7.63;;;6.10;;
2486;SDS011;1254;49.144;8.212;2023-07-24T11:08:33;10.90;;;6.90;;
2486;SDS011;1254;49.144;8.212;2023-07-24T11:11:03;7.20;;;6.10;;
2486;SDS011;1254;49.144;8.212;2023-07-24T11:13:31;7.20;;;6.47;;
2486;SDS011;1254;49.144;8.212;2023-07-24T11:16:03;7.40;;;6.60;;
2486;SDS011;1254;49.144;8.212;2023-07-24T11:18:31;7.03;;;6.33;;
2486;SDS011;1254;49.144;8.212;2023-07-24T11:21:01;7.83;;;7.03;;
2486;SDS011;1254;49.144;8.212;2023-07-24T11:23:29;7.20;;;6.43;;
2486;SDS011;1254;49.144;8.212;2023-07-24T11:25:57;9.30;;;6.80;;
2486;SDS011;1254;49.144;8.212;2023-07-24T11:28:26;8.77;;;6.67;;
2486;SDS011;1254;49.144;8.212;2023-07-24T11:30:55;8.57;;;6.37;;
2486;SDS011;1254;49.144;8.212;2023-07-24T11:33:29;10.40;;;6.60;;
2486;SDS011;1254;49.144;8.212;2023-07-24T11:35:58;8.43;;;6.87;;
2486;SDS011;1254;49.144;8.212;2023-07-24T11:38:28;6.77;;;6.00;;
2486;SDS011;1254;49.144;8.212;2023-07-24T11:40:56;7.30;;;6.57;;
2486;SDS011;1254;49.144;8.212;2023-07-24T11:43:24;7.20;;;6.03;;
2486;SDS011;1254;49.144;8.212;2023-07-24T11:45:53;7.60;;;6.80;;
2486;SDS011;1254;49.144;8.212;2023-07-24T11:48:22;6.30;;;5.70;;
2486;SDS011;1254;49.144;8.212;2023-07-24T11:50:52;7.43;;;6.80;;
2486;SDS011;1254;49.144;8.212;2023-07-24T11:53:22;7.33;;;6.63;;
2486;SDS011;1254;49.144;8.212;2023-07-24T11:55:52;11.60;;;6.30;;
2486;SDS011;1254;49.144;8.212;2023-07-24T11:58:20;7.07;;;6.47;;
2486;SDS011;1254;49.144;8.212;2023-07-24T12:00:49;6.67;;;6.03;;
2486;SDS011;1254;49.144;8.212;2023-07-24T12:03:19;7.93;;;6.50;;
2486;SDS011;1254;49.144;8.212;2023-07-24T12:05:47;7.47;;;6.27;;
2486;SDS011;1254;49.144;8.212;2023-07-24T12:08:16;6.30;;;5.70;;
2486;SDS011;1254;49.144;8.212;2023-07-24T12:10:45;7.03;;;6.33;;
2486;SDS011;1254;49.144;8.212;2023-07-24T12:13:16;6.80;;;6.03;;
2486;SDS011;1254;49.144;8.212;2023-07-24T12:15:44;8.63;;;6.20;;
2486;SDS011;1254;49.144;8.212;2023-07-24T12:18:12;8.03;;;6.37;;
2486;SDS011;1254;49.144;8.212;2023-07-24T12:20:40;8.20;;;6.90;;
2486;SDS011;1254;49.144;8.212;2023-07-24T12:23:08;7.57;;;6.53;;
2486;SDS011;1254;49.144;8.212;2023-07-24T12:25:36;7.10;;;6.40;;
2486;SDS011;1254;49.144;8.212;2023-07-24T12:28:05;7.17;;;6.47;;
2486;SDS011;1254;49.144;8.212;2023-07-24T12:30:34;7.13;;;6.47;;
2486;SDS011;1254;49.144;8.212;2023-07-24T12:33:02;7.20;;;6.50;;
2486;SDS011;1254;49.144;8.212;2023-07-24T12:35:31;7.80;;;7.07;;
2486;SDS011;1254;49.144;8.212;2023-07-24T12:37:59;7.20;;;6.53;;
2486;SDS011;1254;49.144;8.212;2023-07-24T12:40:27;7.17;;;6.57;;
2486;SDS011;1254;49.144;8.212;2023-07-24T12:42:55;8.10;;;7.40;;
2486;SDS011;1254;49.144;8.212;2023-07-24T12:45:23;7.53;;;6.83;;
2486;SDS011;1254;49.144;8.212;2023-07-24T12:47:53;8.07;;;7.10;;
2486;SDS011;1254;49.144;8.212;2023-07-24T12:50:22;7.57;;;6.93;;
2486;SDS011;1254;49.144;8.212;2023-07-24T12:52:50;8.13;;;7.37;;
2486;SDS011;1254;49.144;8.212;2023-07-24T12:55:18;9.50;;;8.23;;
2486;SDS011;1254;49.144;8.212;2023-07-24T12:57:47;7.40;;;6.80;;
2486;SDS011;1254;49.144;8.212;2023-07-24T13:00:15;9.00;;;7.00;;
2486;SDS011;1254;49.144;8.212;2023-07-24T13:02:43;8.10;;;7.37;;
2486;SDS011;1254;49.144;8.212;2023-07-24T13:05:13;8.10;;;7.30;;
2486;SDS011;1254;49.144;8.212;2023-07-24T13:07:41;7.70;;;7.10;;
2486;SDS011;1254;49.144;8.212;2023-07-24T13:10:09;8.47;;;7.77;;
2486;SDS011;1254;49.144;8.212;2023-07-24T13:12:37;8.00;;;7.40;;
2486;SDS011;1254;49.144;8.212;2023-07-24T13:15:06;8.00;;;7.30;;
2486;SDS011;1254;49.144;8.212;2023-07-24T13:17:34;8.60;;;7.80;;
2486;SDS011;1254;49.144;8.212;2023-07-24T13:20:03;7.50;;;6.90;;
2486;SDS011;1254;49.144;8.212;2023-07-24T13:22:33;7.90;;;7.30;;
2486;SDS011;1254;49.144;8.212;2023-07-24T13:25:01;9.90;;;6.90;;
2486;SDS011;1254;49.144;8.212;2023-07-24T13:27:30;8.50;;;7.80;;
2486;SDS011;1254;49.144;8.212;2023-07-24T13:29:58;7.73;;;7.03;;
2486;SDS011;1254;49.144;8.212;2023-07-24T13:32:26;9.07;;;7.00;;
2486;SDS011;1254;49.144;8.212;2023-07-24T13:34:56;12.13;;;8.40;;
2486;SDS011;1254;49.144;8.212;2023-07-24T13:37:26;8.20;;;7.40;;
2486;SDS011;1254;49.144;8.212;2023-07-24T13:39:55;8.10;;;7.50;;
2486;SDS011;1254;49.144;8.212;2023-07-24T13:42:23;8.17;;;7.57;;
2486;SDS011;1254;49.144;8.212;2023-07-24T13:44:52;6.60;;;6.10;;
2486;SDS011;1254;49.144;8.212;2023-07-24T13:47:20;8.40;;;7.80;;
2486;SDS011;1254;49.144;8.212;2023-07-24T13:49:48;8.47;;;7.77;;
2486;SDS011;1254;49.144;8.212;2023-07-24T13:52:16;8.20;;;7.40;;
2486;SDS011;1254;49.144;8.212;2023-07-24T13:54:44;7.27;;;6.60;;
2486;SDS011;1254;49.144;8.212;2023-07-24T13:57:14;8.57;;;7.63;;
2486;SDS011;1254;49.144;8.212;2023-07-24T13:59:42;7.03;;;6.53;;
2486;SDS011;1254;49.144;8.212;2023-07-24T14:02:11;7.80;;;7.10;;
2486;SDS011;1254;49.144;8.212;2023-07-24T14:04:39;8.73;;;7.97;;
2486;SDS011;1254;49.144;8.212;2023-07-24T14:07:07;7.73;;;7.20;;
2486;SDS011;1254;49.144;8.212;2023-07-24T14:09:36;7.63;;;7.10;;
2486;SDS011;1254;49.144;8.212;2023-07-24T14:12:04;8.50;;;7.70;;
2486;SDS011;1254;49.144;8.212;2023-07-24T14:14:34;8.00;;;7.30;;
2486;SDS011;1254;49.144;8.212;2023-07-24T14:17:02;8.10;;;7.27;;
2486;SDS011;1254;49.144;8.212;2023-07-24T14:19:30;6.90;;;6.30;;
2486;SDS011;1254;49.144;8.212;2023-07-24T14:21:58;6.90;;;6.30;;
2486;SDS011;1254;49.144;8.212;2023-07-24T14:24:27;6.40;;;5.80;;
2486;SDS011;1254;49.144;8.212;2023-07-24T14:26:56;6.90;;;6.30;;
2486;SDS011;1254;49.144;8.212;2023-07-24T14:29:24;8.47;;;7.20;;
2486;SDS011;1254;49.144;8.212;2023-07-24T14:31:54;14.33;;;7.97;;
2486;SDS011;1254;49.144;8.212;2023-07-24T14:34:22;16.13;;;8.07;;
2486;SDS011;1254;49.144;8.212;2023-07-24T14:36:50;18.83;;;8.23;;
2486;SDS011;1254;49.144;8.212;2023-07-24T14:39:18;10.23;;;9.17;;
2486;SDS011;1254;49.144;8.212;2023-07-24T14:41:47;11.37;;;9.40;;
2486;SDS011;1254;49.144;8.212;2023-07-24T14:44:15;13.73;;;8.70;;
2486;SDS011;1254;49.144;8.212;2023-07-24T14:46:43;17.63;;;9.03;;
2486;SDS011;1254;49.144;8.212;2023-07-24T14:49:13;13.83;;;9.80;;
2486;SDS011;1254;49.144;8.212;2023-07-24T14:51:41;11.73;;;10.27;;
2486;SDS011;1254;49.144;8.212;2023-07-24T14:54:09;15.00;;;9.87;;
2486;SDS011;1254;49.144;8.212;2023-07-24T14:56:37;16.70;;;11.73;;
2486;SDS011;1254;49.144;8.212;2023-07-24T14:59:05;9.70;;;8.73;;
2486;SDS011;1254;49.144;8.212;2023-07-24T15:01:34;18.73;;;14.20;;
2486;SDS011;1254;49.144;8.212;2023-07-24T15:04:02;18.63;;;16.73;;
2486;SDS011;1254;49.144;8.212;2023-07-24T15:06:31;17.83;;;16.03;;
2486;SDS011;1254;49.144;8.212;2023-07-24T15:09:00;11.33;;;9.00;;
2486;SDS011;1254;49.144;8.212;2023-07-24T15:11:31;16.10;;;12.00;;
2486;SDS011;1254;49.144;8.212;2023-07-24T15:13:59;8.23;;;7.30;;
2486;SDS011;1254;49.144;8.212;2023-07-24T15:16:28;7.37;;;6.67;;
2486;SDS011;1254;49.144;8.212;2023-07-24T15:18:56;8.67;;;7.67;;
2486;SDS011;1254;49.144;8.212;2023-07-24T15:21:25;7.40;;;6.70;;
2486;SDS011;1254;49.144;8.212;2023-07-24T15:23:54;7.33;;;6.70;;